createdAt,value
2018-04-10T00:01:52.332Z,14.90
2018-04-10T00:04:18.599Z,14.30
2018-04-10T00:06:45.604Z,15.33
2018-04-10T00:09:11.864Z,15.80
2018-04-10T00:11:38.123Z,15.30
2018-04-10T00:14:04.359Z,14.07
2018-04-10T00:16:30.613Z,14.37
2018-04-10T00:18:56.988Z,18.83
2018-04-10T00:21:23.279Z,14.57
2018-04-10T00:23:49.556Z,15.67
2018-04-10T00:26:15.807Z,17.30
2018-04-10T00:28:42.081Z,14.97
2018-04-10T00:31:08.356Z,16.03
2018-04-10T00:33:35.436Z,17.90
2018-04-10T00:36:03.792Z,18.17
2018-04-10T00:38:29.869Z,15.67
2018-04-10T00:40:56.663Z,17.10
2018-04-10T00:43:22.728Z,22.70
2018-04-10T00:45:48.812Z,21.20
2018-04-10T00:48:14.865Z,20.70
2018-04-10T00:50:40.923Z,19.23
2018-04-10T00:53:19.437Z,20.40
2018-04-10T00:55:45.491Z,20.37
2018-04-10T00:58:11.763Z,22.07
2018-04-10T01:00:38.010Z,20.33
2018-04-10T01:03:05.010Z,22.07
2018-04-10T01:05:31.235Z,21.70
2018-04-10T01:07:57.513Z,23.17
2018-04-10T01:10:23.871Z,23.10
2018-04-10T01:12:50.239Z,21.47
2018-04-10T01:15:16.521Z,22.03
2018-04-10T01:17:42.775Z,27.97
2018-04-10T01:20:13.363Z,23.23
2018-04-10T01:22:40.183Z,21.67
2018-04-10T01:25:06.258Z,19.93
2018-04-10T01:27:39.467Z,21.13
2018-04-10T01:30:05.554Z,22.03
2018-04-10T01:32:31.671Z,21.63
2018-04-10T01:34:57.771Z,23.43
2018-04-10T01:37:23.874Z,24.27
2018-04-10T01:39:49.991Z,22.03
2018-04-10T01:42:18.999Z,23.00
2018-04-10T01:44:45.068Z,24.40
2018-04-10T01:47:11.141Z,22.77
2018-04-10T01:49:37.206Z,29.40
2018-04-10T01:52:03.288Z,23.30
2018-04-10T01:54:30.139Z,26.17
2018-04-10T01:56:56.335Z,25.90
2018-04-10T01:59:22.429Z,24.17
2018-04-10T02:01:49.276Z,24.63
2018-04-10T02:04:15.400Z,24.87
2018-04-10T02:06:41.463Z,26.30
2018-04-10T02:09:07.533Z,26.67
2018-04-10T02:11:33.588Z,30.10
2018-04-10T02:14:00.320Z,24.30
2018-04-10T02:16:26.448Z,25.33
2018-04-10T02:18:53.235Z,25.90
2018-04-10T02:21:19.291Z,27.80
2018-04-10T02:23:45.368Z,26.73
2018-04-10T02:26:11.435Z,27.70
2018-04-10T02:28:37.523Z,27.90
2018-04-10T02:31:04.326Z,26.87
2018-04-10T02:33:30.381Z,26.83
2018-04-10T02:35:58.756Z,30.57
2018-04-10T02:38:24.827Z,27.97
2018-04-10T02:40:50.917Z,28.57
2018-04-10T02:43:16.993Z,26.20
2018-04-10T02:45:43.075Z,28.27
2018-04-10T02:48:11.999Z,29.63
2018-04-10T02:50:38.100Z,30.73
2018-04-10T02:53:04.947Z,27.23
2018-04-10T02:55:31.803Z,28.00
2018-04-10T02:57:58.603Z,28.00
2018-04-10T03:00:24.722Z,27.57
2018-04-10T03:02:52.246Z,27.53
2018-04-10T03:05:19.653Z,31.23
2018-04-10T03:07:45.722Z,30.00
2018-04-10T03:10:11.837Z,27.43
2018-04-10T03:12:38.253Z,28.90
2018-04-10T03:15:05.235Z,31.07
2018-04-10T03:17:31.304Z,27.17
2018-04-10T03:19:58.124Z,28.57
2018-04-10T03:22:24.172Z,29.23
2018-04-10T03:24:50.284Z,28.63
2018-04-10T03:27:16.800Z,31.33
2018-04-10T03:29:42.854Z,28.63
2018-04-10T03:32:10.253Z,33.07
2018-04-10T03:37:08.116Z,28.80
2018-04-10T03:39:34.183Z,28.83
2018-04-10T03:42:01.000Z,28.47
2018-04-10T03:44:27.073Z,28.83
2018-04-10T03:46:53.875Z,29.13
2018-04-10T03:49:19.949Z,32.23
2018-04-10T03:51:46.027Z,29.23
2018-04-10T03:54:12.113Z,28.87
2018-04-10T03:56:38.175Z,29.50
2018-04-10T03:59:04.971Z,29.90
2018-04-10T04:01:31.026Z,31.40
2018-04-10T04:03:57.089Z,30.13
2018-04-10T04:06:23.143Z,29.27
2018-04-10T04:08:49.951Z,31.37
2018-04-10T04:11:16.085Z,28.50
2018-04-10T04:13:42.144Z,35.23
2018-04-10T04:16:20.479Z,35.83
2018-04-10T04:18:58.801Z,35.43
2018-04-10T04:24:20.797Z,31.77
2018-04-10T04:26:47.599Z,34.43
2018-04-10T04:29:13.664Z,32.13
2018-04-10T04:31:39.796Z,31.30
2018-04-10T04:34:05.828Z,27.83
2018-04-10T04:36:31.859Z,29.23
2018-04-10T04:38:57.891Z,33.23
2018-04-10T04:41:23.963Z,34.77
2018-04-10T04:43:50.760Z,33.00
2018-04-10T04:46:16.804Z,34.63
2018-04-10T04:48:42.820Z,33.47
2018-04-10T04:51:08.867Z,34.97
2018-04-10T04:53:34.916Z,33.47
2018-04-10T04:56:01.251Z,38.37
2018-04-10T04:58:27.319Z,35.87
2018-04-10T05:00:53.383Z,39.23
2018-04-10T05:03:19.419Z,30.90
2018-04-10T05:05:46.204Z,32.77
2018-04-10T05:08:12.245Z,33.70
2018-04-10T05:10:38.296Z,36.50
2018-04-10T05:13:04.350Z,30.80
2018-04-10T05:15:30.395Z,34.20
2018-04-10T05:17:56.433Z,36.40
2018-04-10T05:20:22.479Z,32.70
2018-04-10T05:22:49.347Z,33.83
2018-04-10T05:25:16.128Z,30.40
2018-04-10T05:27:42.187Z,32.20
2018-04-10T05:30:08.223Z,31.40
2018-04-10T05:32:34.248Z,29.97
2018-04-10T05:35:00.287Z,34.40
2018-04-10T05:37:27.939Z,32.20
2018-04-10T05:39:53.970Z,29.53
2018-04-10T05:42:19.995Z,27.50
2018-04-10T05:44:52.896Z,29.80
2018-04-10T05:47:18.967Z,28.50
2018-04-10T05:49:44.995Z,31.83
2018-04-10T05:52:11.105Z,32.30
2018-04-10T05:54:37.166Z,32.17
2018-04-10T05:57:03.224Z,27.63
2018-04-10T05:59:29.260Z,30.73
2018-04-10T06:01:55.351Z,30.10
2018-04-10T06:04:21.399Z,30.70
2018-04-10T06:06:47.432Z,27.83
2018-04-10T06:09:15.203Z,29.97
2018-04-10T06:11:41.307Z,27.73
2018-04-10T06:14:07.340Z,25.90
2018-04-10T06:16:33.380Z,30.00
2018-04-10T06:18:59.413Z,26.07
2018-04-10T06:21:25.476Z,26.60
2018-04-10T06:23:51.524Z,28.47
2018-04-10T06:26:17.564Z,26.57
2018-04-10T06:28:43.588Z,25.33
2018-04-10T06:31:10.344Z,28.90
2018-04-10T06:33:37.489Z,25.43
2018-04-10T06:36:04.268Z,29.17
2018-04-10T06:38:30.306Z,23.80
2018-04-10T06:40:57.075Z,24.40
2018-04-10T06:43:23.124Z,28.10
2018-04-10T06:45:49.167Z,25.93
2018-04-10T06:48:15.196Z,23.30
2018-04-10T06:50:41.310Z,24.27
2018-04-10T06:53:07.773Z,22.20
2018-04-10T06:55:35.855Z,22.60
2018-04-10T06:58:01.912Z,22.50
2018-04-10T07:00:27.948Z,22.67
2018-04-10T07:02:54.001Z,21.10
2018-04-10T07:05:20.032Z,20.23
2018-04-10T07:07:46.069Z,20.20
2018-04-10T07:10:12.136Z,20.93
2018-04-10T07:12:38.900Z,20.03
2018-04-10T07:15:09.950Z,20.63
2018-04-10T07:17:36.876Z,19.53
2018-04-10T07:20:02.907Z,18.73
2018-04-10T07:22:28.935Z,18.13
2018-04-10T07:24:54.955Z,19.23
2018-04-10T07:27:20.993Z,18.67
2018-04-10T07:29:47.027Z,16.20
2018-04-10T07:32:13.051Z,17.00
2018-04-10T07:34:39.155Z,18.87
2018-04-10T07:37:07.636Z,15.83
2018-04-10T07:39:33.707Z,19.20
2018-04-10T07:42:00.507Z,15.27
2018-04-10T07:44:26.563Z,14.77
2018-04-10T07:46:52.651Z,18.07
2018-04-10T07:49:18.747Z,23.37
2018-04-10T07:51:44.812Z,17.67
2018-04-10T07:54:10.976Z,20.03
2018-04-10T07:56:39.135Z,16.47
2018-04-10T07:59:05.972Z,15.30
2018-04-10T08:01:32.051Z,15.80
2018-04-10T08:03:58.888Z,15.10
2018-04-10T08:06:25.012Z,14.90
2018-04-10T08:08:51.069Z,15.90
2018-04-10T08:11:17.119Z,13.63
2018-04-10T08:13:44.980Z,16.00
2018-04-10T08:16:11.034Z,15.80
2018-04-10T08:18:37.107Z,13.77
2018-04-10T08:21:03.159Z,14.70
2018-04-10T08:23:29.274Z,12.37
2018-04-10T08:25:56.067Z,10.10
2018-04-10T08:28:22.139Z,11.10
2018-04-10T08:30:51.496Z,12.60
2018-04-10T08:33:17.555Z,11.17
2018-04-10T08:35:43.668Z,12.00
2018-04-10T08:38:09.730Z,13.50
2018-04-10T08:40:35.800Z,13.83
2018-04-10T08:43:01.876Z,14.73
2018-04-10T08:45:28.689Z,12.53
2018-04-10T08:47:58.173Z,15.50
2018-04-10T08:50:24.258Z,12.83
2018-04-10T08:52:50.529Z,13.67
2018-04-10T08:55:16.561Z,12.33
2018-04-10T08:57:42.633Z,9.77
2018-04-10T09:00:08.692Z,9.50
2018-04-10T09:02:34.751Z,10.37
2018-04-10T09:05:00.795Z,10.07
2018-04-10T09:07:26.871Z,9.30
2018-04-10T09:09:52.937Z,9.60
2018-04-10T09:12:19.009Z,10.17
2018-04-10T09:14:45.839Z,11.00
2018-04-10T09:17:11.932Z,11.20
2018-04-10T09:19:38.011Z,10.03
2018-04-10T09:22:04.077Z,9.80
2018-04-10T09:24:30.879Z,8.20
2018-04-10T09:26:56.940Z,9.47
2018-04-10T09:29:23.016Z,6.33
2018-04-10T09:31:49.083Z,6.80
2018-04-10T09:34:15.123Z,6.20
2018-04-10T09:36:41.148Z,8.00
2018-04-10T09:39:07.179Z,11.33
2018-04-10T09:41:33.955Z,6.20
2018-04-10T09:43:59.981Z,3.70
2018-04-10T09:46:26.015Z,3.30
2018-04-10T09:48:52.052Z,26.27
2018-04-10T09:51:18.083Z,4.10
2018-04-10T09:53:44.127Z,3.93
2018-04-10T09:56:10.156Z,5.37
2018-04-10T09:58:36.184Z,5.23
2018-04-10T10:01:02.241Z,6.97
2018-04-10T10:03:28.276Z,4.77
2018-04-10T10:05:54.308Z,4.77
2018-04-10T10:08:20.368Z,6.17
2018-04-10T10:10:46.404Z,5.03
2018-04-10T10:13:12.435Z,4.60
2018-04-10T10:15:38.487Z,4.93
2018-04-10T10:18:04.524Z,5.60
2018-04-10T10:20:30.562Z,5.43
2018-04-10T10:22:56.594Z,5.20
2018-04-10T10:25:22.632Z,6.33
2018-04-10T10:27:48.678Z,5.30
2018-04-10T10:30:15.445Z,5.20
2018-04-10T10:32:42.232Z,6.23
2018-04-10T10:35:08.267Z,5.37
2018-04-10T10:37:34.296Z,7.10
2018-04-10T10:40:00.331Z,6.83
2018-04-10T10:42:26.375Z,5.37
2018-04-10T10:44:52.410Z,6.10
2018-04-10T10:47:18.456Z,5.00
2018-04-10T10:49:44.500Z,5.40
2018-04-10T10:52:10.556Z,5.73
2018-04-10T10:54:36.609Z,6.73
2018-04-10T10:57:03.420Z,4.33
2018-04-10T10:59:32.312Z,5.03
2018-04-10T11:01:58.348Z,4.43
2018-04-10T11:04:24.402Z,6.30
2018-04-10T11:06:51.181Z,4.60
2018-04-10T11:09:17.232Z,5.80
2018-04-10T11:11:43.268Z,5.70
2018-04-10T11:14:09.302Z,6.17
2018-04-10T11:16:35.323Z,5.33
2018-04-10T11:19:04.136Z,6.20
2018-04-10T11:21:30.159Z,4.97
2018-04-10T11:23:56.206Z,4.80
2018-04-10T11:26:22.247Z,7.10
2018-04-10T11:28:48.259Z,5.03
2018-04-10T11:31:14.304Z,6.33
2018-04-10T11:33:40.340Z,4.83
2018-04-10T11:36:06.392Z,4.63
2018-04-10T11:38:35.647Z,8.73
2018-04-10T11:41:01.707Z,4.53
2018-04-10T11:43:27.811Z,4.27
2018-04-10T11:45:53.864Z,2.97
2018-04-10T11:48:19.902Z,6.70
2018-04-10T11:50:45.945Z,5.50
2018-04-10T11:53:12.082Z,4.50
2018-04-10T11:55:38.144Z,4.50
2018-04-10T11:58:07.512Z,5.73
2018-04-10T12:00:34.364Z,5.87
2018-04-10T12:03:00.404Z,4.70
2018-04-10T12:05:26.457Z,4.90
2018-04-10T12:07:53.257Z,5.80
2018-04-10T12:10:19.360Z,4.90
2018-04-10T12:12:45.493Z,3.67
2018-04-10T12:15:11.596Z,4.63
2018-04-10T12:17:37.677Z,8.33
2018-04-10T12:20:03.754Z,5.40
2018-04-10T12:22:29.824Z,3.30
2018-04-10T12:24:56.630Z,3.07
2018-04-10T12:27:22.674Z,3.10
2018-04-10T12:29:48.745Z,3.23
2018-04-10T12:32:14.823Z,3.20
2018-04-10T12:34:40.843Z,3.40
2018-04-10T12:37:07.152Z,12.53
2018-04-10T12:39:33.381Z,7.37
2018-04-10T12:41:59.591Z,4.30
2018-04-10T12:44:26.523Z,5.67
2018-04-10T12:46:52.747Z,4.70
2018-04-10T12:49:18.951Z,4.10
2018-04-10T12:51:45.238Z,3.10
2018-04-10T12:54:12.254Z,6.57
2018-04-10T12:56:38.556Z,3.57
2018-04-10T12:59:04.811Z,6.00
2018-04-10T13:01:31.049Z,4.97
2018-04-10T13:03:57.306Z,5.27
2018-04-10T13:06:23.535Z,6.70
2018-04-10T13:08:49.776Z,4.97
2018-04-10T13:11:16.011Z,6.17
2018-04-10T13:13:42.257Z,6.57
2018-04-10T13:16:09.228Z,6.07
2018-04-10T13:18:35.447Z,5.17
2018-04-10T13:21:01.675Z,5.50
2018-04-10T13:23:27.920Z,5.10
2018-04-10T13:25:54.870Z,7.00
2018-04-10T13:28:21.848Z,7.27
2018-04-10T13:30:48.079Z,5.60
2018-04-10T13:33:15.025Z,5.07
2018-04-10T13:35:42.026Z,4.93
2018-04-10T13:38:08.369Z,5.50
2018-04-10T13:40:34.608Z,7.40
2018-04-10T13:43:00.876Z,6.27
2018-04-10T13:45:28.640Z,8.23
2018-04-10T13:47:54.872Z,7.53
2018-04-10T13:50:21.125Z,6.50
2018-04-10T13:52:47.382Z,5.97
2018-04-10T13:55:13.650Z,6.63
2018-04-10T13:57:40.647Z,9.43
2018-04-10T14:00:06.943Z,9.03
2018-04-10T14:02:33.223Z,11.27
2018-04-10T14:04:59.527Z,10.97
2018-04-10T14:07:26.528Z,10.93
2018-04-10T14:09:52.848Z,12.50
2018-04-10T14:12:19.091Z,14.87
2018-04-10T14:14:46.094Z,14.77
2018-04-10T14:17:12.386Z,15.90
2018-04-10T14:19:38.666Z,14.93
2018-04-10T14:22:04.912Z,13.87
2018-04-10T14:24:31.163Z,13.70
2018-04-10T14:26:57.467Z,14.50
2018-04-10T14:29:23.775Z,15.90
2018-04-10T14:31:50.132Z,18.17
2018-04-10T14:34:16.435Z,15.20
2018-04-10T14:36:42.719Z,14.67
2018-04-10T14:39:09.018Z,16.27
2018-04-10T14:41:35.286Z,15.27
2018-04-10T14:44:01.586Z,17.77
2018-04-10T14:46:27.824Z,19.40
2018-04-10T14:48:54.085Z,17.70
2018-04-10T14:51:20.374Z,18.50
2018-04-10T14:53:46.658Z,20.63
2018-04-10T14:56:12.930Z,22.10
2018-04-10T14:58:39.185Z,21.83
2018-04-10T15:01:05.459Z,22.27
2018-04-10T15:03:31.773Z,21.70
2018-04-10T15:05:58.055Z,26.30
2018-04-10T15:08:24.359Z,26.67
2018-04-10T15:10:51.350Z,27.43
2018-04-10T15:13:17.572Z,27.20
2018-04-10T15:15:43.887Z,30.87
2018-04-10T15:18:10.876Z,33.57
2018-04-10T15:20:37.133Z,28.60
2018-04-10T15:23:03.440Z,35.60
2018-04-10T15:25:30.456Z,30.80
2018-04-10T15:27:56.769Z,30.70
2018-04-10T15:30:23.015Z,30.40
2018-04-10T15:32:49.270Z,31.70
2018-04-10T15:35:15.504Z,30.60
2018-04-10T15:37:41.740Z,32.93
2018-04-10T15:40:07.994Z,32.37
2018-04-10T15:42:34.270Z,29.20
2018-04-10T15:45:00.547Z,26.47
2018-04-10T15:47:26.794Z,27.13
2018-04-10T15:49:53.067Z,26.20
2018-04-10T15:52:19.315Z,34.20
2018-04-10T15:54:45.571Z,25.77
2018-04-10T15:57:11.840Z,25.83
2018-04-10T15:59:38.834Z,29.57
2018-04-10T16:02:05.087Z,27.97
2018-04-10T16:04:31.372Z,30.53
2018-04-10T16:06:57.647Z,32.30
2018-04-10T16:09:23.908Z,30.03
2018-04-10T16:11:50.163Z,31.60
2018-04-10T16:14:16.488Z,33.57
2018-04-10T16:16:42.766Z,32.57
2018-04-10T16:19:09.769Z,34.37
2018-04-10T16:21:35.996Z,36.87
2018-04-10T16:24:02.262Z,37.67
2018-04-10T16:26:28.515Z,37.90
2018-04-10T16:28:54.785Z,37.10
2018-04-10T16:31:21.781Z,39.70
2018-04-10T16:33:48.039Z,39.07
2018-04-10T16:36:14.295Z,41.37
2018-04-10T16:38:40.557Z,49.23
2018-04-10T16:41:07.629Z,40.33
2018-04-10T16:43:34.800Z,47.67
2018-04-10T16:46:01.089Z,44.90
2018-04-10T16:48:27.344Z,42.80
2018-04-10T16:50:53.583Z,42.43
2018-04-10T16:53:19.836Z,42.03
2018-04-10T16:55:46.884Z,45.13
2018-04-10T16:58:13.138Z,42.97
2018-04-10T17:00:39.399Z,43.77
2018-04-10T17:03:06.401Z,41.97
2018-04-10T17:05:32.641Z,41.30
2018-04-10T17:07:58.880Z,43.83
2018-04-10T17:10:25.160Z,40.87
2018-04-10T17:12:51.411Z,40.27
2018-04-10T17:15:18.411Z,42.50
2018-04-10T17:17:44.756Z,43.93
2018-04-10T17:20:11.029Z,43.37
2018-04-10T17:22:37.315Z,42.00
2018-04-10T17:25:03.551Z,43.50
2018-04-10T17:27:29.867Z,46.13
2018-04-10T17:29:56.156Z,45.03
2018-04-10T17:32:22.439Z,39.87
2018-04-10T17:34:48.655Z,43.33
2018-04-10T17:37:14.876Z,42.20
2018-04-10T17:39:41.860Z,42.47
2018-04-10T17:42:08.095Z,42.60
2018-04-10T17:44:34.317Z,39.97
2018-04-10T17:47:00.567Z,44.47
2018-04-10T17:49:26.787Z,43.43
2018-04-10T17:51:53.748Z,42.17
2018-04-10T17:54:19.969Z,40.30
2018-04-10T17:56:46.200Z,44.97
2018-04-10T17:59:12.858Z,46.00
2018-04-10T18:01:39.071Z,42.00
2018-04-10T18:04:05.276Z,42.77
2018-04-10T18:06:31.495Z,42.40
2018-04-10T18:08:57.729Z,40.70
2018-04-10T18:11:23.950Z,41.57
2018-04-10T18:13:50.171Z,41.57
2018-04-10T18:16:16.420Z,44.60
2018-04-10T18:18:42.667Z,42.20
2018-04-10T18:21:09.683Z,42.77
2018-04-10T18:23:35.931Z,42.13
2018-04-10T18:26:02.163Z,44.87
2018-04-10T18:28:28.392Z,41.73
2018-04-10T18:30:55.327Z,41.53
2018-04-10T18:33:21.523Z,41.97
2018-04-10T18:35:47.763Z,44.20
2018-04-10T18:38:13.976Z,43.67
2018-04-10T18:40:40.224Z,42.60
2018-04-10T18:43:06.851Z,44.30
2018-04-10T18:45:33.847Z,49.77
2018-04-10T18:48:00.107Z,41.93
2018-04-10T18:50:26.326Z,50.23
2018-04-10T18:52:52.527Z,48.80
2018-04-10T18:55:19.459Z,47.50
2018-04-10T18:57:46.478Z,43.27
2018-04-10T19:00:12.712Z,49.83
2018-04-10T19:02:38.980Z,46.57
2018-04-10T19:05:05.222Z,48.00
2018-04-10T19:07:31.449Z,52.83
2018-04-10T19:09:57.664Z,47.17
2018-04-10T19:12:23.891Z,47.57
2018-04-10T19:14:50.920Z,47.67
2018-04-10T19:17:17.899Z,41.03
2018-04-10T19:19:44.867Z,42.53
2018-04-10T19:22:11.871Z,43.20
2018-04-10T19:24:38.114Z,44.90
2018-04-10T19:27:04.349Z,25.27
2018-04-10T19:29:30.558Z,10.30
2018-04-10T19:31:56.787Z,11.20
2018-04-10T19:34:23.026Z,10.17
2018-04-10T19:36:49.215Z,12.50
2018-04-10T19:39:15.434Z,9.57
2018-04-10T19:41:41.656Z,10.00
2018-04-10T19:44:07.873Z,10.17
2018-04-10T19:46:34.824Z,10.60
2018-04-10T19:49:01.031Z,11.53
2018-04-10T19:51:27.256Z,9.20
2018-04-10T19:53:53.508Z,11.73
2018-04-10T19:56:19.724Z,12.67
2018-04-10T19:58:45.929Z,12.33
2018-04-10T20:01:12.148Z,13.43
2018-04-10T20:03:39.123Z,13.27
2018-04-10T20:08:39.915Z,15.03
2018-04-10T20:11:06.135Z,14.73
2018-04-10T20:13:32.355Z,17.87
2018-04-10T20:15:58.588Z,15.73
2018-04-10T20:18:25.559Z,15.57
2018-04-10T20:20:51.807Z,15.60
2018-04-10T20:23:18.092Z,22.63
2018-04-10T20:25:44.319Z,18.50
2018-04-10T20:28:10.539Z,20.43
2018-04-10T20:30:36.764Z,19.60
2018-04-10T20:33:03.744Z,18.63
2018-04-10T20:35:30.706Z,23.00
2018-04-10T20:37:56.904Z,20.33
2018-04-10T20:40:23.188Z,20.47
2018-04-10T20:42:49.446Z,19.97
2018-04-10T20:45:16.403Z,20.63
2018-04-10T20:47:43.375Z,23.30
2018-04-10T20:50:09.617Z,21.30
2018-04-10T20:52:35.857Z,21.87
2018-04-10T20:55:02.131Z,23.93
2018-04-10T20:57:28.359Z,22.60
2018-04-10T20:59:54.609Z,23.93
2018-04-10T21:02:20.845Z,24.97
2018-04-10T21:04:47.106Z,23.67
2018-04-10T21:07:14.115Z,24.20
2018-04-10T21:09:40.368Z,24.40
2018-04-10T21:12:06.631Z,23.33
2018-04-10T21:14:32.874Z,21.07
2018-04-10T21:16:59.104Z,22.00
2018-04-10T21:19:25.363Z,20.90
2018-04-10T21:21:51.687Z,20.37
2018-04-10T21:24:17.912Z,23.33
2018-04-10T21:26:44.223Z,23.43
2018-04-10T21:29:10.545Z,24.20
2018-04-10T21:31:37.565Z,23.97
2018-04-10T21:34:03.830Z,24.47
2018-04-10T21:36:30.230Z,27.40
2018-04-10T21:38:56.471Z,26.90
2018-04-10T21:41:22.754Z,24.57
2018-04-10T21:43:49.017Z,27.07
2018-04-10T21:46:16.007Z,26.33
2018-04-10T21:48:42.287Z,28.37
2018-04-10T21:51:08.575Z,31.70
2018-04-10T21:53:35.575Z,29.43
2018-04-10T21:56:01.835Z,30.07
2018-04-10T21:58:28.809Z,32.70
2018-04-10T22:00:55.112Z,33.10
2018-04-10T22:03:21.341Z,35.37
2018-04-10T22:05:47.636Z,34.00
2018-04-10T22:08:13.887Z,33.70
2018-04-10T22:10:40.135Z,34.00
2018-04-10T22:13:06.420Z,35.57
2018-04-10T22:15:32.665Z,37.50
2018-04-10T22:17:58.891Z,42.30
2018-04-10T22:20:25.132Z,42.33
2018-04-10T22:22:51.469Z,45.90
2018-04-10T22:25:17.822Z,46.50
2018-04-10T22:27:44.075Z,46.77
2018-04-10T22:30:10.344Z,44.87
2018-04-10T22:32:37.349Z,44.97
2018-04-10T22:35:03.596Z,48.73
2018-04-10T22:37:29.859Z,46.17
2018-04-10T22:39:56.221Z,48.17
2018-04-10T22:42:22.496Z,45.80
2018-04-10T22:44:48.737Z,50.73
2018-04-10T22:47:15.035Z,51.20
2018-04-10T22:49:41.699Z,47.30
2018-04-10T22:52:08.724Z,51.10
2018-04-10T22:54:35.820Z,54.90
2018-04-10T22:57:05.594Z,50.87
2018-04-10T22:59:31.833Z,54.47
2018-04-10T23:01:58.135Z,52.53
2018-04-10T23:04:24.459Z,49.50
2018-04-10T23:06:51.668Z,47.70
2018-04-10T23:09:17.957Z,41.87
2018-04-10T23:11:45.076Z,41.00
2018-04-10T23:14:11.339Z,40.70
2018-04-10T23:16:38.940Z,38.97
2018-04-10T23:19:05.180Z,37.00
2018-04-10T23:21:31.449Z,34.13
2018-04-10T23:23:57.743Z,34.83
2018-04-10T23:26:24.743Z,32.30
2018-04-10T23:28:51.932Z,32.63
2018-04-10T23:31:18.276Z,31.47
2018-04-10T23:33:44.530Z,31.50
2018-04-10T23:36:11.948Z,30.53
2018-04-10T23:38:38.336Z,30.60
2018-04-10T23:41:05.352Z,31.83
2018-04-10T23:43:33.604Z,33.13
2018-04-10T23:45:59.896Z,31.53
2018-04-10T23:48:26.192Z,31.53
2018-04-10T23:50:52.685Z,31.00
2018-04-10T23:53:19.032Z,31.53
2018-04-10T23:55:46.100Z,31.63
2018-04-10T23:58:12.376Z,30.30
